sensor_id;sensor_type;location;lat;lon;timestamp;temperature;humidity
19224;DHT22;9746;47.180;9.776;2023-12-20T11:24:44;6.80;99.90
19224;DHT22;9746;47.180;9.776;2023-12-20T11:27:13;6.80;99.90
19224;DHT22;9746;47.180;9.776;2023-12-20T11:29:41;6.80;99.90
19224;DHT22;9746;47.180;9.776;2023-12-20T11:32:28;6.80;99.90
19224;DHT22;9746;47.180;9.776;2023-12-20T11:35:19;6.80;99.90
19224;DHT22;9746;47.180;9.776;2023-12-20T11:37:47;6.80;99.90
19224;DHT22;9746;47.180;9.776;2023-12-20T11:40:23;6.60;99.90
19224;DHT22;9746;47.180;9.776;2023-12-20T11:42:51;6.50;99.90
19224;DHT22;9746;47.180;9.776;2023-12-20T11:45:24;6.50;99.90
19224;DHT22;9746;47.180;9.776;2023-12-20T11:47:53;6.50;99.90
19224;DHT22;9746;47.180;9.776;2023-12-20T11:50:23;6.40;99.90
19224;DHT22;9746;47.180;9.776;2023-12-20T11:52:52;6.50;99.90
19224;DHT22;9746;47.180;9.776;2023-12-20T11:55:23;6.50;99.90
19224;DHT22;9746;47.180;9.776;2023-12-20T11:57:51;6.60;99.90
19224;DHT22;9746;47.180;9.776;2023-12-20T12:00:20;6.80;99.90
19224;DHT22;9746;47.180;9.776;2023-12-20T12:03:00;7.00;99.90
19224;DHT22;9746;47.180;9.776;2023-12-20T12:05:36;7.10;99.90
19224;DHT22;9746;47.180;9.776;2023-12-20T12:08:06;7.30;99.90
19224;DHT22;9746;47.180;9.776;2023-12-20T12:10:35;7.40;99.90
19224;DHT22;9746;47.180;9.776;2023-12-20T12:13:03;7.50;99.90
19224;DHT22;9746;47.180;9.776;2023-12-20T12:15:31;7.80;99.90
19224;DHT22;9746;47.180;9.776;2023-12-20T12:17:58;7.80;99.90
19224;DHT22;9746;47.180;9.776;2023-12-20T12:20:30;7.80;99.90
19224;DHT22;9746;47.180;9.776;2023-12-20T12:22:59;7.70;99.90
19224;DHT22;9746;47.180;9.776;2023-12-20T12:25:35;7.80;99.90
19224;DHT22;9746;47.180;9.776;2023-12-20T12:28:05;7.90;99.90
19224;DHT22;9746;47.180;9.776;2023-12-20T12:30:40;7.90;99.90
19224;DHT22;9746;47.180;9.776;2023-12-20T12:33:07;8.00;99.90
19224;DHT22;9746;47.180;9.776;2023-12-20T12:35:36;8.10;99.90
19224;DHT22;9746;47.180;9.776;2023-12-20T12:38:06;8.10;99.90
19224;DHT22;9746;47.180;9.776;2023-12-20T12:40:43;8.20;99.90
19224;DHT22;9746;47.180;9.776;2023-12-20T12:43:11;8.20;99.90
19224;DHT22;9746;47.180;9.776;2023-12-20T12:45:41;8.10;99.90
19224;DHT22;9746;47.180;9.776;2023-12-20T12:48:09;8.10;99.90
19224;DHT22;9746;47.180;9.776;2023-12-20T12:50:46;8.10;99.90
19224;DHT22;9746;47.180;9.776;2023-12-20T12:53:13;8.00;99.90
19224;DHT22;9746;47.180;9.776;2023-12-20T12:55:44;8.00;99.90
19224;DHT22;9746;47.180;9.776;2023-12-20T12:58:12;7.90;99.90
19224;DHT22;9746;47.180;9.776;2023-12-20T13:00:45;8.00;99.90
19224;DHT22;9746;47.180;9.776;2023-12-20T13:03:12;8.10;99.90
19224;DHT22;9746;47.180;9.776;2023-12-20T13:05:41;8.10;99.90
19224;DHT22;9746;47.180;9.776;2023-12-20T13:08:09;8.20;99.90
19224;DHT22;9746;47.180;9.776;2023-12-20T13:10:58;8.30;99.90
19224;DHT22;9746;47.180;9.776;2023-12-20T13:13:27;8.30;99.90
19224;DHT22;9746;47.180;9.776;2023-12-20T13:15:56;8.20;99.90
19224;DHT22;9746;47.180;9.776;2023-12-20T13:18:23;8.20;99.90
19224;DHT22;9746;47.180;9.776;2023-12-20T13:20:52;8.20;99.90
19224;DHT22;9746;47.180;9.776;2023-12-20T13:23:19;8.30;99.90
19224;DHT22;9746;47.180;9.776;2023-12-20T13:26:03;8.30;99.90
19224;DHT22;9746;47.180;9.776;2023-12-20T13:28:32;8.30;99.90
19224;DHT22;9746;47.180;9.776;2023-12-20T13:31:17;8.30;99.90
19224;DHT22;9746;47.180;9.776;2023-12-20T13:33:44;8.30;99.90
19224;DHT22;9746;47.180;9.776;2023-12-20T13:36:12;8.30;99.90
19224;DHT22;9746;47.180;9.776;2023-12-20T13:38:40;8.20;99.90
19224;DHT22;9746;47.180;9.776;2023-12-20T13:41:11;8.20;99.90
19224;DHT22;9746;47.180;9.776;2023-12-20T13:43:39;8.20;99.90
19224;DHT22;9746;47.180;9.776;2023-12-20T13:46:23;8.20;99.90
19224;DHT22;9746;47.180;9.776;2023-12-20T13:48:50;8.20;99.90
19224;DHT22;9746;47.180;9.776;2023-12-20T13:51:18;8.20;99.90
19224;DHT22;9746;47.180;9.776;2023-12-20T13:53:46;8.20;99.90
19224;DHT22;9746;47.180;9.776;2023-12-20T13:56:18;8.10;99.90
19224;DHT22;9746;47.180;9.776;2023-12-20T13:58:47;8.20;99.90
19224;DHT22;9746;47.180;9.776;2023-12-20T14:01:14;8.10;99.90
19224;DHT22;9746;47.180;9.776;2023-12-20T14:03:42;8.20;99.90
19224;DHT22;9746;47.180;9.776;2023-12-20T14:06:10;8.10;99.90
19224;DHT22;9746;47.180;9.776;2023-12-20T14:08:39;8.10;99.90
19224;DHT22;9746;47.180;9.776;2023-12-20T14:11:13;8.00;99.90
19224;DHT22;9746;47.180;9.776;2023-12-20T14:13:43;8.00;99.90
19224;DHT22;9746;47.180;9.776;2023-12-20T14:16:12;8.00;99.90
19224;DHT22;9746;47.180;9.776;2023-12-20T14:18:41;7.90;99.90
19224;DHT22;9746;47.180;9.776;2023-12-20T14:21:09;7.90;99.90
19224;DHT22;9746;47.180;9.776;2023-12-20T14:23:37;7.90;99.90
19224;DHT22;9746;47.180;9.776;2023-12-20T14:26:05;7.80;99.90
19224;DHT22;9746;47.180;9.776;2023-12-20T14:28:32;7.80;99.90
19224;DHT22;9746;47.180;9.776;2023-12-20T14:31:02;7.70;99.90
19224;DHT22;9746;47.180;9.776;2023-12-20T14:33:29;7.70;99.90
19224;DHT22;9746;47.180;9.776;2023-12-20T14:36:04;7.70;99.90
19224;DHT22;9746;47.180;9.776;2023-12-20T14:38:32;7.70;99.90
19224;DHT22;9746;47.180;9.776;2023-12-20T14:41:08;7.60;99.90
19224;DHT22;9746;47.180;9.776;2023-12-20T14:43:36;7.50;99.90
19224;DHT22;9746;47.180;9.776;2023-12-20T14:46:10;7.40;99.90
19224;DHT22;9746;47.180;9.776;2023-12-20T14:48:38;7.40;99.90
19224;DHT22;9746;47.180;9.776;2023-12-20T14:51:06;7.30;99.90
19224;DHT22;9746;47.180;9.776;2023-12-20T14:53:33;7.30;99.90
19224;DHT22;9746;47.180;9.776;2023-12-20T14:56:04;7.20;99.90
19224;DHT22;9746;47.180;9.776;2023-12-20T14:58:32;7.20;99.90
19224;DHT22;9746;47.180;9.776;2023-12-20T15:01:01;7.10;99.90
19224;DHT22;9746;47.180;9.776;2023-12-20T15:03:30;7.00;99.90
19224;DHT22;9746;47.180;9.776;2023-12-20T15:06:05;6.90;99.90
19224;DHT22;9746;47.180;9.776;2023-12-20T15:08:33;6.80;99.90
19224;DHT22;9746;47.180;9.776;2023-12-20T15:11:03;6.80;99.90
19224;DHT22;9746;47.180;9.776;2023-12-20T15:13:31;6.70;99.90
19224;DHT22;9746;47.180;9.776;2023-12-20T15:15:59;6.70;99.90
19224;DHT22;9746;47.180;9.776;2023-12-20T15:18:27;6.70;99.90
19224;DHT22;9746;47.180;9.776;2023-12-20T15:20:58;6.70;99.90
19224;DHT22;9746;47.180;9.776;2023-12-20T15:23:26;6.70;99.90
19224;DHT22;9746;47.180;9.776;2023-12-20T15:26:03;6.70;99.90
19224;DHT22;9746;47.180;9.776;2023-12-20T15:28:31;6.70;99.90
19224;DHT22;9746;47.180;9.776;2023-12-20T15:31:05;6.60;99.90
19224;DHT22;9746;47.180;9.776;2023-12-20T15:33:33;6.60;99.90
19224;DHT22;9746;47.180;9.776;2023-12-20T15:36:04;6.60;99.90
19224;DHT22;9746;47.180;9.776;2023-12-20T15:38:34;6.60;99.90
19224;DHT22;9746;47.180;9.776;2023-12-20T15:41:08;6.50;99.90
19224;DHT22;9746;47.180;9.776;2023-12-20T15:43:35;6.40;99.90
19224;DHT22;9746;47.180;9.776;2023-12-20T15:46:26;6.40;99.90
19224;DHT22;9746;47.180;9.776;2023-12-20T15:48:53;6.40;99.90
19224;DHT22;9746;47.180;9.776;2023-12-20T15:51:24;6.40;99.90
19224;DHT22;9746;47.180;9.776;2023-12-20T15:53:52;6.30;99.90
19224;DHT22;9746;47.180;9.776;2023-12-20T15:56:24;6.20;99.90
19224;DHT22;9746;47.180;9.776;2023-12-20T15:58:51;6.20;99.90
19224;DHT22;9746;47.180;9.776;2023-12-20T16:01:30;6.20;99.90
19224;DHT22;9746;47.180;9.776;2023-12-20T16:03:58;6.10;99.90
19224;DHT22;9746;47.180;9.776;2023-12-20T16:06:33;6.00;99.90
19224;DHT22;9746;47.180;9.776;2023-12-20T16:09:03;5.90;99.90
19224;DHT22;9746;47.180;9.776;2023-12-20T16:11:31;5.90;99.90
19224;DHT22;9746;47.180;9.776;2023-12-20T16:13:59;5.80;99.90
19224;DHT22;9746;47.180;9.776;2023-12-20T16:16:26;5.70;99.90
19224;DHT22;9746;47.180;9.776;2023-12-20T16:18:55;5.60;99.90
19224;DHT22;9746;47.180;9.776;2023-12-20T16:21:30;5.50;99.90
19224;DHT22;9746;47.180;9.776;2023-12-20T16:24:04;5.40;99.90
19224;DHT22;9746;47.180;9.776;2023-12-20T16:26:36;5.40;99.90
19224;DHT22;9746;47.180;9.776;2023-12-20T16:29:03;5.30;99.90
19224;DHT22;9746;47.180;9.776;2023-12-20T16:31:31;5.20;99.90
19224;DHT22;9746;47.180;9.776;2023-12-20T16:34:00;5.00;99.90
19224;DHT22;9746;47.180;9.776;2023-12-20T16:36:50;4.90;99.90
19224;DHT22;9746;47.180;9.776;2023-12-20T16:39:20;4.80;99.90
19224;DHT22;9746;47.180;9.776;2023-12-20T16:41:49;4.60;99.90
19224;DHT22;9746;47.180;9.776;2023-12-20T16:44:17;4.50;99.90
19224;DHT22;9746;47.180;9.776;2023-12-20T16:46:45;4.40;99.90
19224;DHT22;9746;47.180;9.776;2023-12-20T16:49:13;4.30;99.90
19224;DHT22;9746;47.180;9.776;2023-12-20T16:51:47;4.30;99.90
19224;DHT22;9746;47.180;9.776;2023-12-20T16:54:14;4.30;99.90
19224;DHT22;9746;47.180;9.776;2023-12-20T16:56:44;4.30;99.90
19224;DHT22;9746;47.180;9.776;2023-12-20T16:59:19;4.30;99.90
19224;DHT22;9746;47.180;9.776;2023-12-20T17:01:53;4.30;99.90
19224;DHT22;9746;47.180;9.776;2023-12-20T17:04:23;4.30;99.90
19224;DHT22;9746;47.180;9.776;2023-12-20T17:06:52;4.30;99.90
19224;DHT22;9746;47.180;9.776;2023-12-20T17:09:24;4.20;99.90
19224;DHT22;9746;47.180;9.776;2023-12-20T17:11:54;4.20;99.90
19224;DHT22;9746;47.180;9.776;2023-12-20T17:14:22;4.20;99.90
19224;DHT22;9746;47.180;9.776;2023-12-20T17:16:51;4.30;99.90
19224;DHT22;9746;47.180;9.776;2023-12-20T17:19:18;4.20;99.90
19224;DHT22;9746;47.180;9.776;2023-12-20T17:21:49;4.20;99.90
19224;DHT22;9746;47.180;9.776;2023-12-20T17:24:17;4.30;99.90
19224;DHT22;9746;47.180;9.776;2023-12-20T17:26:45;4.30;99.90
19224;DHT22;9746;47.180;9.776;2023-12-20T17:29:14;4.30;99.90
19224;DHT22;9746;47.180;9.776;2023-12-20T17:31:42;4.30;99.90
19224;DHT22;9746;47.180;9.776;2023-12-20T17:34:09;4.30;99.90
19224;DHT22;9746;47.180;9.776;2023-12-20T17:36:39;4.30;99.90
19224;DHT22;9746;47.180;9.776;2023-12-20T17:39:08;4.30;99.90
19224;DHT22;9746;47.180;9.776;2023-12-20T17:41:35;4.30;99.90
19224;DHT22;9746;47.180;9.776;2023-12-20T17:44:04;4.30;99.90
19224;DHT22;9746;47.180;9.776;2023-12-20T17:46:35;4.30;99.90
19224;DHT22;9746;47.180;9.776;2023-12-20T17:49:02;4.30;99.90
19224;DHT22;9746;47.180;9.776;2023-12-20T17:51:35;4.30;99.90
19224;DHT22;9746;47.180;9.776;2023-12-20T17:54:02;4.40;99.90
19224;DHT22;9746;47.180;9.776;2023-12-20T17:56:31;4.40;99.90
19224;DHT22;9746;47.180;9.776;2023-12-20T17:58:59;4.40;99.90
19224;DHT22;9746;47.180;9.776;2023-12-20T18:01:27;4.40;99.90
19224;DHT22;9746;47.180;9.776;2023-12-20T18:03:56;4.40;99.90
19224;DHT22;9746;47.180;9.776;2023-12-20T18:06:24;4.30;99.90
19224;DHT22;9746;47.180;9.776;2023-12-20T18:08:51;4.30;99.90
19224;DHT22;9746;47.180;9.776;2023-12-20T18:11:22;4.20;99.90
19224;DHT22;9746;47.180;9.776;2023-12-20T18:13:49;4.20;99.90
19224;DHT22;9746;47.180;9.776;2023-12-20T18:16:19;4.10;99.90
19224;DHT22;9746;47.180;9.776;2023-12-20T18:18:47;4.10;99.90
19224;DHT22;9746;47.180;9.776;2023-12-20T18:21:17;4.10;99.90
19224;DHT22;9746;47.180;9.776;2023-12-20T18:23:47;4.00;99.90
19224;DHT22;9746;47.180;9.776;2023-12-20T18:26:20;4.10;99.90
19224;DHT22;9746;47.180;9.776;2023-12-20T18:28:53;4.00;99.90
19224;DHT22;9746;47.180;9.776;2023-12-20T18:31:27;4.00;99.90
19224;DHT22;9746;47.180;9.776;2023-12-20T18:33:54;3.90;99.90
19224;DHT22;9746;47.180;9.776;2023-12-20T18:36:24;3.90;99.90
19224;DHT22;9746;47.180;9.776;2023-12-20T18:38:52;3.90;99.90
19224;DHT22;9746;47.180;9.776;2023-12-20T18:41:19;3.80;99.90
19224;DHT22;9746;47.180;9.776;2023-12-20T18:43:57;3.80;99.90
19224;DHT22;9746;47.180;9.776;2023-12-20T18:46:50;3.80;99.90
19224;DHT22;9746;47.180;9.776;2023-12-20T18:49:18;3.70;99.90
19224;DHT22;9746;47.180;9.776;2023-12-20T18:51:50;3.70;99.90
19224;DHT22;9746;47.180;9.776;2023-12-20T18:54:18;3.70;99.90
19224;DHT22;9746;47.180;9.776;2023-12-20T18:56:54;3.70;99.90
19224;DHT22;9746;47.180;9.776;2023-12-20T18:59:23;3.70;99.90
19224;DHT22;9746;47.180;9.776;2023-12-20T19:01:52;3.70;99.90
19224;DHT22;9746;47.180;9.776;2023-12-20T19:04:22;3.60;99.90
19224;DHT22;9746;47.180;9.776;2023-12-20T19:06:59;3.60;99.90
19224;DHT22;9746;47.180;9.776;2023-12-20T19:09:28;3.50;99.90
19224;DHT22;9746;47.180;9.776;2023-12-20T19:11:56;3.50;99.90
19224;DHT22;9746;47.180;9.776;2023-12-20T19:14:24;3.40;99.90
19224;DHT22;9746;47.180;9.776;2023-12-20T19:16:55;3.40;99.90
19224;DHT22;9746;47.180;9.776;2023-12-20T19:19:24;3.40;99.90
19224;DHT22;9746;47.180;9.776;2023-12-20T19:21:55;3.40;99.90
19224;DHT22;9746;47.180;9.776;2023-12-20T19:24:24;3.40;99.90
19224;DHT22;9746;47.180;9.776;2023-12-20T19:26:52;3.40;99.90
19224;DHT22;9746;47.180;9.776;2023-12-20T19:29:19;3.40;99.90
19224;DHT22;9746;47.180;9.776;2023-12-20T19:31:47;3.40;99.90
19224;DHT22;9746;47.180;9.776;2023-12-20T19:34:18;3.40;99.90
19224;DHT22;9746;47.180;9.776;2023-12-20T19:36:45;3.40;99.90
19224;DHT22;9746;47.180;9.776;2023-12-20T19:39:14;3.40;99.90
19224;DHT22;9746;47.180;9.776;2023-12-20T19:41:51;3.40;99.90
19224;DHT22;9746;47.180;9.776;2023-12-20T19:44:20;3.30;99.90
19224;DHT22;9746;47.180;9.776;2023-12-20T19:46:49;3.30;99.90
19224;DHT22;9746;47.180;9.776;2023-12-20T19:49:17;3.30;99.90
19224;DHT22;9746;47.180;9.776;2023-12-20T19:51:46;3.30;99.90
19224;DHT22;9746;47.180;9.776;2023-12-20T19:54:14;3.30;99.90
19224;DHT22;9746;47.180;9.776;2023-12-20T19:56:42;3.20;99.90
19224;DHT22;9746;47.180;9.776;2023-12-20T19:59:12;3.10;99.90
19224;DHT22;9746;47.180;9.776;2023-12-20T20:01:39;3.00;99.90
19224;DHT22;9746;47.180;9.776;2023-12-20T20:04:09;2.90;99.90
19224;DHT22;9746;47.180;9.776;2023-12-20T20:06:39;2.80;99.90
19224;DHT22;9746;47.180;9.776;2023-12-20T20:09:07;2.80;99.90
19224;DHT22;9746;47.180;9.776;2023-12-20T20:11:34;2.80;99.90
19224;DHT22;9746;47.180;9.776;2023-12-20T20:14:02;2.80;99.90
19224;DHT22;9746;47.180;9.776;2023-12-20T20:16:33;2.80;99.90
19224;DHT22;9746;47.180;9.776;2023-12-20T20:19:03;2.90;99.90
19224;DHT22;9746;47.180;9.776;2023-12-20T20:21:33;3.00;99.90
19224;DHT22;9746;47.180;9.776;2023-12-20T20:24:01;3.10;99.90
19224;DHT22;9746;47.180;9.776;2023-12-20T20:26:32;3.20;99.90
19224;DHT22;9746;47.180;9.776;2023-12-20T20:29:00;3.30;99.90
19224;DHT22;9746;47.180;9.776;2023-12-20T20:31:29;3.40;99.90
19224;DHT22;9746;47.180;9.776;2023-12-20T20:33:59;3.50;99.90
19224;DHT22;9746;47.180;9.776;2023-12-20T20:36:27;3.50;99.90
19224;DHT22;9746;47.180;9.776;2023-12-20T20:38:58;3.50;99.90
19224;DHT22;9746;47.180;9.776;2023-12-20T20:41:25;3.60;99.90
19224;DHT22;9746;47.180;9.776;2023-12-20T20:44:04;3.60;99.90
19224;DHT22;9746;47.180;9.776;2023-12-20T20:46:34;3.60;99.90
19224;DHT22;9746;47.180;9.776;2023-12-20T20:49:01;3.60;99.90
19224;DHT22;9746;47.180;9.776;2023-12-20T20:51:30;3.70;99.90
19224;DHT22;9746;47.180;9.776;2023-12-20T20:53:57;3.70;99.90
19224;DHT22;9746;47.180;9.776;2023-12-20T20:56:25;3.70;99.90
19224;DHT22;9746;47.180;9.776;2023-12-20T20:58:53;3.70;99.90
19224;DHT22;9746;47.180;9.776;2023-12-20T21:01:20;3.70;99.90
19224;DHT22;9746;47.180;9.776;2023-12-20T21:03:49;3.70;99.90
19224;DHT22;9746;47.180;9.776;2023-12-20T21:06:17;3.70;99.90
19224;DHT22;9746;47.180;9.776;2023-12-20T21:08:46;3.60;99.90
19224;DHT22;9746;47.180;9.776;2023-12-20T21:11:13;3.60;99.90
19224;DHT22;9746;47.180;9.776;2023-12-20T21:13:46;3.60;99.90
19224;DHT22;9746;47.180;9.776;2023-12-20T21:16:14;3.60;99.90
